Time;durP1;ratioP1;P1;durP2;ratioP2;P2;SDS_P1;SDS_P2;PMS_P1;PMS_P2;Temp;Humidity;BMP_temperature;BMP_pressure;BME280_temperature;BME280_humidity;BME280_pressure;Samples;Min_cycle;Max_cycle;Signal;HPM_P1;HPM_P2
2021/11/17 02:26:58;;;;;;;23.97;14.93;;;4.70;98.30;;;;;;5125936;23;20429;-83
2021/11/17 02:29:17;;;;;;;25.87;14.20;;;4.80;98.30;;;;;;5126129;23;20406;-83
2021/11/17 02:31:39;;;;;;;25.83;14.70;;;4.80;98.30;;;;;;5125624;23;20420;-83
2021/11/17 02:34:14;;;;;;;25.17;13.90;;;4.80;98.30;;;;;;5126008;23;20429;-83
2021/11/17 02:36:53;;;;;;;27.50;13.80;;;4.70;98.30;;;;;;5126095;23;20446;-84
2021/11/17 02:39:21;;;;;;;26.47;15.63;;;4.70;98.30;;;;;;5126527;23;20422;-84
2021/11/17 02:41:50;;;;;;;28.37;14.60;;;4.70;98.30;;;;;;5127600;23;20398;-84
2021/11/17 02:44:07;;;;;;;24.17;13.43;;;4.70;98.30;;;;;;5128199;23;20409;-83
2021/11/17 02:46:41;;;;;;;26.20;15.17;;;4.70;98.30;;;;;;5129641;23;20422;-84
2021/11/17 02:48:58;;;;;;;26.60;15.33;;;4.70;98.30;;;;;;5098325;23;20428;-84
2021/11/17 02:51:19;;;;;;;27.20;14.97;;;4.70;98.30;;;;;;5128169;23;20397;-84
2021/11/17 02:53:37;;;;;;;22.37;13.10;;;4.60;98.30;;;;;;5127512;23;20884;-84
2021/11/17 02:56:09;;;;;;;27.20;15.50;;;4.60;98.30;;;;;;5127582;23;20513;-84
2021/11/17 02:58:30;;;;;;;26.43;14.07;;;4.70;98.30;;;;;;5127432;23;21037;-83
2021/11/17 03:01:12;;;;;;;32.80;15.90;;;4.60;98.30;;;;;;5126757;23;20426;-83
2021/11/17 03:03:34;;;;;;;31.40;16.00;;;4.60;98.30;;;;;;5116890;23;20481;-84
2021/11/17 03:06:02;;;;;;;28.83;15.80;;;4.60;98.30;;;;;;5127497;23;20432;-84
2021/11/17 03:08:30;;;;;;;28.40;15.67;;;4.70;98.30;;;;;;5127539;23;20421;-83
2021/11/17 03:10:57;;;;;;;27.40;15.00;;;4.60;98.30;;;;;;5126457;23;20517;-83
2021/11/17 03:13:15;;;;;;;30.07;14.90;;;4.60;98.30;;;;;;5126476;23;20534;-83
2021/11/17 03:15:39;;;;;;;27.97;16.00;;;4.70;98.30;;;;;;5127611;23;20506;-83
2021/11/17 03:18:06;;;;;;;25.93;14.43;;;4.60;98.30;;;;;;5127023;23;20418;-83
2021/11/17 03:20:36;;;;;;;29.50;15.23;;;4.60;98.30;;;;;;5101789;23;20452;-84
2021/11/17 03:22:55;;;;;;;28.30;15.80;;;4.60;98.30;;;;;;5127338;23;20445;-83
2021/11/17 03:25:21;;;;;;;23.23;13.50;;;4.60;98.30;;;;;;5127297;23;20404;-83
2021/11/17 03:27:40;;;;;;;22.10;13.33;;;4.60;98.30;;;;;;5126935;23;20500;-83
2021/11/17 03:30:12;;;;;;;25.43;15.70;;;4.60;98.30;;;;;;5126564;23;20396;-84
2021/11/17 03:32:50;;;;;;;27.23;13.50;;;4.60;98.30;;;;;;5126871;23;20431;-83
2021/11/17 03:35:08;;;;;;;21.50;13.30;;;4.50;98.30;;;;;;5127313;23;20430;-84
2021/11/17 03:37:32;;;;;;;21.70;12.33;;;4.50;98.30;;;;;;5127410;23;20401;-83
2021/11/17 03:40:16;;;;;;;25.57;14.70;;;4.50;98.30;;;;;;5126963;23;20393;-83
2021/11/17 03:42:39;;;;;;;22.80;11.93;;;4.60;98.30;;;;;;5131861;23;20523;-84
2021/11/17 03:45:02;;;;;;;21.83;12.47;;;4.60;98.30;;;;;;5131607;23;20457;-83
2021/11/17 03:47:21;;;;;;;22.80;13.87;;;4.70;98.30;;;;;;5132926;23;20430;-83
2021/11/17 03:49:37;;;;;;;20.97;12.40;;;4.70;98.30;;;;;;5127742;23;20777;-83
2021/11/17 03:52:01;;;;;;;22.67;12.67;;;4.70;98.30;;;;;;5126412;23;20400;-83
2021/11/17 03:54:30;;;;;;;21.17;13.40;;;4.60;98.30;;;;;;5127001;23;20751;-83
2021/11/17 03:56:54;;;;;;;20.93;12.63;;;4.60;98.30;;;;;;5126667;23;20513;-83
2021/11/17 03:59:12;;;;;;;21.10;12.50;;;4.70;98.30;;;;;;5126354;23;20895;-83
2021/11/17 04:01:39;;;;;;;23.83;11.87;;;4.60;98.30;;;;;;5126711;23;20405;-83
2021/11/17 04:03:58;;;;;;;23.63;12.53;;;4.60;98.30;;;;;;5127294;23;20481;-84
2021/11/17 04:06:12;;;;;;;23.73;11.47;;;4.60;98.30;;;;;;5127539;23;20433;-83
2021/11/17 04:08:28;;;;;;;20.37;12.20;;;4.60;98.30;;;;;;5127498;23;20411;-83
2021/11/17 04:10:52;;;;;;;18.93;11.00;;;4.60;98.30;;;;;;5127610;23;20753;-83
2021/11/17 04:13:05;;;;;;;23.53;14.00;;;4.50;98.30;;;;;;5128096;23;20421;-83
2021/11/17 04:15:30;;;;;;;19.43;11.73;;;4.60;98.30;;;;;;5127335;23;20911;-83
2021/11/17 04:17:47;;;;;;;21.07;13.53;;;4.60;98.30;;;;;;5126900;23;20526;-84
2021/11/17 04:20:16;;;;;;;20.83;12.30;;;4.50;98.30;;;;;;5126639;23;20426;-83
2021/11/17 04:22:47;;;;;;;21.57;12.33;;;4.60;98.30;;;;;;5125922;23;20873;-83
2021/11/17 04:25:14;;;;;;;19.73;12.30;;;4.60;98.30;;;;;;5126998;23;20404;-83
2021/11/17 04:27:31;;;;;;;23.17;12.33;;;4.60;98.30;;;;;;5127335;23;20429;-84
2021/11/17 04:29:51;;;;;;;24.30;12.37;;;4.60;98.30;;;;;;5126772;23;20473;-83
2021/11/17 04:32:17;;;;;;;29.23;13.07;;;4.60;98.30;;;;;;5126865;23;20422;-83
2021/11/17 04:34:42;;;;;;;22.23;12.53;;;4.60;98.30;;;;;;5127354;23;20433;-84
2021/11/17 04:37:12;;;;;;;19.43;11.80;;;4.60;98.30;;;;;;5127569;23;20969;-83
2021/11/17 04:39:31;;;;;;;18.93;11.93;;;4.60;98.30;;;;;;5127103;23;20425;-83
2021/11/17 04:42:01;;;;;;;22.77;13.17;;;4.60;98.30;;;;;;5127546;23;20429;-83
2021/11/17 04:44:17;;;;;;;19.33;12.27;;;4.60;98.30;;;;;;5126774;23;20418;-83
2021/11/17 04:46:35;;;;;;;19.73;12.03;;;4.60;98.30;;;;;;5127240;23;20422;-83
2021/11/17 04:48:52;;;;;;;20.10;12.33;;;4.60;98.30;;;;;;5128242;23;20824;-85
2021/11/17 04:51:14;;;;;;;24.23;12.50;;;4.60;98.30;;;;;;5128718;23;20428;-84
2021/11/17 04:53:37;;;;;;;20.83;12.27;;;4.70;98.30;;;;;;5137458;23;20446;-83
2021/11/17 04:55:58;;;;;;;26.03;12.23;;;4.70;98.30;;;;;;5130767;23;20426;-84
2021/11/17 04:58:21;;;;;;;23.03;13.70;;;4.80;98.30;;;;;;5132136;23;20388;-83
2021/11/17 05:00:59;;;;;;;20.20;12.23;;;4.90;98.30;;;;;;5132046;23;20426;-83
2021/11/17 05:03:23;;;;;;;20.63;12.30;;;4.90;98.30;;;;;;5120766;23;20454;-83
2021/11/17 05:05:42;;;;;;;23.93;13.07;;;4.90;98.30;;;;;;5126371;23;20430;-84
2021/11/17 05:07:53;;;;;;;36.70;19.70;;;5.10;98.30;;;;;;5126580;23;20483;-83
2021/11/17 05:10:05;;;;;;;20.87;12.70;;;5.20;98.30;;;;;;5128452;23;20513;-82
2021/11/17 05:12:21;;;;;;;18.53;11.43;;;5.20;98.30;;;;;;5127274;23;21016;-83
2021/11/17 05:14:33;;;;;;;20.10;12.00;;;5.10;98.30;;;;;;5126243;23;20765;-84
2021/11/17 05:16:51;;;;;;;18.73;12.03;;;5.00;98.30;;;;;;5126575;23;20407;-84
2021/11/17 05:19:02;;;;;;;18.60;12.00;;;4.90;98.30;;;;;;5126397;23;20869;-83
2021/11/17 05:21:19;;;;;;;22.30;12.40;;;4.80;98.30;;;;;;5126747;23;20436;-83
2021/11/17 05:23:39;;;;;;;23.27;13.43;;;4.80;98.30;;;;;;5126329;23;20438;-83
2021/11/17 05:26:03;;;;;;;23.27;13.17;;;4.70;98.30;;;;;;5125711;23;20432;-83
2021/11/17 05:28:31;;;;;;;23.93;14.20;;;4.70;98.30;;;;;;5126667;23;20433;-86
2021/11/17 05:30:54;;;;;;;21.73;11.93;;;4.60;98.30;;;;;;5125857;23;20436;-85
2021/11/17 05:33:14;;;;;;;19.80;12.50;;;4.60;98.30;;;;;;5125467;23;20841;-85
2021/11/17 05:35:36;;;;;;;21.90;13.80;;;4.60;98.30;;;;;;5126891;23;20401;-83
2021/11/17 05:37:50;;;;;;;20.30;12.97;;;4.60;98.30;;;;;;5129083;23;20458;-84
2021/11/17 05:40:07;;;;;;;18.80;12.07;;;4.60;98.30;;;;;;5127871;23;20513;-83
2021/11/17 05:42:22;;;;;;;22.30;12.57;;;4.50;98.30;;;;;;5126548;23;20457;-85
2021/11/17 05:44:38;;;;;;;21.50;12.77;;;4.50;98.30;;;;;;5126488;23;20425;-84
2021/11/17 05:46:54;;;;;;;21.27;13.53;;;4.50;98.30;;;;;;5126372;23;20426;-83
2021/11/17 05:49:15;;;;;;;24.97;14.80;;;4.50;98.30;;;;;;5125790;23;20430;-83
2021/11/17 05:51:31;;;;;;;26.00;14.37;;;4.60;98.30;;;;;;5125911;23;20480;-83
2021/11/17 05:54:16;;;;;;;21.17;13.00;;;4.60;98.30;;;;;;5126018;23;20480;-83
2021/11/17 05:56:32;;;;;;;25.60;15.20;;;4.60;98.30;;;;;;5126037;23;20408;-86
2021/11/17 05:58:48;;;;;;;23.40;13.80;;;4.60;98.30;;;;;;5132023;23;20407;-83
2021/11/17 06:01:16;;;;;;;30.33;15.97;;;4.60;98.30;;;;;;5126489;23;20418;-85
2021/11/17 06:03:35;;;;;;;27.07;14.80;;;4.60;98.30;;;;;;5125898;23;20542;-83
2021/11/17 06:05:38;;;;;;;28.90;16.50;;;4.60;98.30;;;;;;5125395;23;20418;-83
2021/11/17 06:07:40;;;;;;;22.10;13.23;;;4.60;98.30;;;;;;5125950;23;20426;-83
2021/11/17 06:09:43;;;;;;;23.63;13.60;;;4.60;98.30;;;;;;5125011;23;20426;-83
2021/11/17 06:11:50;;;;;;;24.87;15.20;;;4.60;98.30;;;;;;5126319;23;20450;-83
2021/11/17 06:13:55;;;;;;;29.63;16.17;;;4.60;98.30;;;;;;5125957;23;20420;-83
2021/11/17 06:15:59;;;;;;;24.53;14.90;;;4.60;98.30;;;;;;5125974;23;20514;-83
2021/11/17 06:18:03;;;;;;;28.00;17.10;;;4.60;98.30;;;;;;5125589;23;20496;-83
2021/11/17 06:20:12;;;;;;;27.00;15.37;;;4.60;98.30;;;;;;5126105;23;20397;-83
2021/11/17 06:22:18;;;;;;;25.90;15.70;;;4.60;98.30;;;;;;5126749;23;20446;-83
2021/11/17 06:24:24;;;;;;;24.57;15.87;;;4.60;98.30;;;;;;5126311;23;20525;-83
2021/11/17 06:26:32;;;;;;;26.40;16.90;;;4.60;98.30;;;;;;5126038;23;20488;-83
2021/11/17 06:28:37;;;;;;;29.23;16.27;;;4.60;98.30;;;;;;5126471;23;20423;-84
2021/11/17 06:30:42;;;;;;;27.60;15.50;;;4.60;98.30;;;;;;5125912;23;20430;-83
2021/11/17 06:32:47;;;;;;;32.00;16.77;;;4.70;98.30;;;;;;5126647;23;20446;-83
2021/11/17 06:34:53;;;;;;;26.17;15.50;;;4.70;98.30;;;;;;5127100;23;20417;-82
2021/11/17 06:36:56;;;;;;;30.20;17.40;;;4.70;98.30;;;;;;5126777;23;20956;-83
2021/11/17 06:38:59;;;;;;;28.00;15.80;;;4.70;98.30;;;;;;5127224;23;20426;-83
2021/11/17 06:41:04;;;;;;;28.63;16.73;;;4.70;98.30;;;;;;5127003;23;20428;-83
2021/11/17 06:43:08;;;;;;;29.33;17.53;;;4.70;98.30;;;;;;5125619;23;20468;-83
2021/11/17 06:45:16;;;;;;;28.63;17.93;;;4.70;98.30;;;;;;5124969;23;20892;-83
2021/11/17 06:47:19;;;;;;;29.67;17.60;;;4.70;98.30;;;;;;5125714;23;20400;-82
2021/11/17 06:49:22;;;;;;;33.80;18.93;;;4.70;98.30;;;;;;5123217;23;20449;-83
2021/11/17 06:51:25;;;;;;;31.50;18.53;;;4.80;98.30;;;;;;5122772;23;20425;-84
2021/11/17 06:53:30;;;;;;;31.30;18.40;;;4.70;98.30;;;;;;5115474;23;20778;-85
2021/11/17 06:55:33;;;;;;;30.40;19.23;;;4.70;98.30;;;;;;5124160;23;20397;-85
2021/11/17 06:57:39;;;;;;;38.53;20.90;;;4.70;98.30;;;;;;5124265;23;20758;-85
2021/11/17 06:59:42;;;;;;;34.20;19.77;;;4.70;98.30;;;;;;5118298;23;20951;-86
2021/11/17 07:01:47;;;;;;;35.00;19.13;;;4.70;98.30;;;;;;5124743;23;20887;-85
2021/11/17 07:03:51;;;;;;;34.67;19.70;;;4.80;98.30;;;;;;5116219;23;20449;-84
2021/11/17 07:05:54;;;;;;;34.67;20.30;;;4.80;98.30;;;;;;5125198;23;20907;-85
2021/11/17 07:08:00;;;;;;;37.00;23.17;;;4.80;98.30;;;;;;5124301;23;20485;-85
2021/11/17 07:10:04;;;;;;;39.60;22.37;;;4.80;98.30;;;;;;5115353;23;20727;-84
2021/11/17 07:12:12;;;;;;;38.03;22.10;;;4.80;98.30;;;;;;5116358;23;20450;-85
2021/11/17 07:14:16;;;;;;;37.63;22.63;;;4.80;98.30;;;;;;5116141;23;20526;-84
2021/11/17 07:16:19;;;;;;;40.00;23.27;;;4.80;98.30;;;;;;5124460;23;20426;-84
2021/11/17 07:18:24;;;;;;;42.97;24.77;;;4.80;98.30;;;;;;5115754;23;20494;-85
2021/11/17 07:20:27;;;;;;;37.00;22.30;;;4.80;98.30;;;;;;5125200;23;20984;-85
2021/11/17 07:22:30;;;;;;;41.27;23.90;;;4.80;98.30;;;;;;5118111;23;20508;-85
2021/11/17 07:24:33;;;;;;;44.60;24.27;;;4.80;98.30;;;;;;5117082;23;20431;-85
2021/11/17 07:26:37;;;;;;;46.47;25.87;;;4.80;98.30;;;;;;5125664;23;20492;-85
2021/11/17 07:28:41;;;;;;;41.63;25.03;;;4.80;98.30;;;;;;5126312;23;20426;-85
2021/11/17 07:30:44;;;;;;;41.77;23.83;;;4.90;98.30;;;;;;5119127;23;20432;-85
2021/11/17 07:32:48;;;;;;;43.37;23.10;;;4.90;98.30;;;;;;5125853;23;21036;-84
2021/11/17 07:34:53;;;;;;;48.10;24.57;;;4.90;98.30;;;;;;5125824;23;20450;-84
2021/11/17 07:36:56;;;;;;;43.20;22.13;;;4.90;98.30;;;;;;5125500;23;20524;-85
2021/11/17 07:39:00;;;;;;;48.10;25.20;;;4.90;98.30;;;;;;5117199;23;20430;-83
2021/11/17 07:41:08;;;;;;;39.90;25.00;;;4.90;98.30;;;;;;5125191;23;20425;-84
2021/11/17 07:43:11;;;;;;;41.37;25.70;;;4.90;98.30;;;;;;5117062;23;20457;-85
2021/11/17 07:45:16;;;;;;;43.73;23.77;;;5.00;98.30;;;;;;5124931;23;20934;-84
2021/11/17 07:47:20;;;;;;;44.80;24.20;;;4.90;98.30;;;;;;5125551;23;20433;-85
2021/11/17 07:49:24;;;;;;;43.23;24.30;;;4.90;98.30;;;;;;5116726;23;20938;-85
2021/11/17 07:51:28;;;;;;;45.60;24.97;;;5.00;98.30;;;;;;5124973;23;20741;-85
2021/11/17 07:53:32;;;;;;;46.43;24.33;;;5.00;98.30;;;;;;5125620;23;21014;-84
2021/11/17 07:55:38;;;;;;;41.80;23.57;;;5.00;98.30;;;;;;5116851;23;20449;-85
2021/11/17 07:57:44;;;;;;;47.97;25.97;;;5.00;98.30;;;;;;5125498;23;20488;-85
2021/11/17 07:59:47;;;;;;;37.93;21.80;;;5.10;98.30;;;;;;5126830;23;20915;-83
2021/11/17 08:01:51;;;;;;;40.27;23.57;;;5.10;98.30;;;;;;5127149;23;20407;-84
2021/11/17 08:03:55;;;;;;;42.23;23.50;;;5.10;98.30;;;;;;5128464;23;20440;-83
2021/11/17 08:05:59;;;;;;;45.90;24.10;;;5.10;98.30;;;;;;5128070;23;20720;-84
2021/11/17 08:08:03;;;;;;;47.47;25.17;;;5.10;98.30;;;;;;5126847;23;20931;-84
2021/11/17 08:10:08;;;;;;;43.43;23.13;;;5.10;98.30;;;;;;5126161;23;20435;-85
2021/11/17 08:12:12;;;;;;;43.03;22.93;;;5.10;98.30;;;;;;5125477;23;20457;-84
2021/11/17 08:14:16;;;;;;;44.00;25.00;;;5.10;98.30;;;;;;5127016;23;20505;-84
2021/11/17 08:16:19;;;;;;;44.27;23.17;;;5.10;98.30;;;;;;5126668;23;20513;-83
2021/11/17 08:18:22;;;;;;;41.50;22.60;;;5.10;98.30;;;;;;5126671;23;20501;-85
2021/11/17 08:20:25;;;;;;;37.40;21.37;;;5.10;98.30;;;;;;5127083;23;20401;-84
2021/11/17 08:22:29;;;;;;;43.07;22.37;;;5.20;98.30;;;;;;5125262;23;20512;-82
2021/11/17 08:24:34;;;;;;;38.37;22.23;;;5.20;98.30;;;;;;5126082;23;20517;-84
2021/11/17 08:26:37;;;;;;;41.80;23.20;;;5.10;98.30;;;;;;5126377;23;20426;-84
2021/11/17 08:28:41;;;;;;;39.57;21.43;;;5.20;98.30;;;;;;5125732;23;20734;-84
2021/11/17 08:30:45;;;;;;;37.50;21.30;;;5.20;98.30;;;;;;5126026;23;20430;-83
2021/11/17 08:32:49;;;;;;;38.30;21.30;;;5.20;98.30;;;;;;5126268;23;20949;-83
2021/11/17 08:34:52;;;;;;;41.67;22.53;;;5.20;98.30;;;;;;5125825;23;20517;-84
2021/11/17 08:36:55;;;;;;;41.27;22.20;;;5.10;98.30;;;;;;5125823;23;20398;-83
2021/11/17 08:38:58;;;;;;;44.90;22.87;;;5.20;98.30;;;;;;5125877;23;20430;-84
2021/11/17 08:41:06;;;;;;;39.07;22.10;;;5.20;98.30;;;;;;5126348;23;20433;-84
2021/11/17 08:43:10;;;;;;;41.13;22.57;;;5.30;98.30;;;;;;5126383;23;20935;-84
2021/11/17 08:45:14;;;;;;;43.57;21.33;;;5.30;98.30;;;;;;5126462;23;20887;-84
2021/11/17 08:47:19;;;;;;;36.83;20.20;;;5.20;98.30;;;;;;5126359;23;20484;-84
2021/11/17 08:49:22;;;;;;;44.70;23.87;;;5.30;98.30;;;;;;5126050;23;20425;-85
2021/11/17 08:51:29;;;;;;;48.73;23.80;;;5.20;98.30;;;;;;5126326;23;20401;-84
2021/11/17 08:53:35;;;;;;;40.90;21.10;;;5.30;98.30;;;;;;5125866;23;20445;-84
2021/11/17 08:55:42;;;;;;;43.80;22.97;;;5.30;98.30;;;;;;5125218;23;20525;-83
2021/11/17 08:57:48;;;;;;;41.57;22.73;;;5.30;98.30;;;;;;5126183;23;20411;-83
2021/11/17 08:59:52;;;;;;;43.77;22.23;;;5.30;98.30;;;;;;5126113;23;21098;-84
2021/11/17 09:01:55;;;;;;;40.17;21.90;;;5.30;98.30;;;;;;5126419;23;20401;-84
2021/11/17 09:04:00;;;;;;;42.60;21.60;;;5.30;98.30;;;;;;5126133;23;20496;-84
2021/11/17 09:06:08;;;;;;;41.53;20.53;;;5.30;98.30;;;;;;5125397;23;20479;-84
2021/11/17 09:08:11;;;;;;;40.50;20.70;;;5.30;98.30;;;;;;5126645;23;20457;-84
2021/11/17 09:10:17;;;;;;;43.07;21.60;;;5.40;98.30;;;;;;5125715;23;20430;-84
2021/11/17 09:12:20;;;;;;;41.40;20.90;;;5.30;98.30;;;;;;5126640;23;20417;-84
2021/11/17 09:14:25;;;;;;;47.50;21.83;;;5.30;98.30;;;;;;5126645;23;20402;-84
2021/11/17 09:16:30;;;;;;;49.70;24.40;;;5.40;98.30;;;;;;5126244;23;20425;-84
2021/11/17 09:18:35;;;;;;;47.73;22.53;;;5.40;98.30;;;;;;5126676;23;20388;-85
2021/11/17 09:20:39;;;;;;;46.17;22.17;;;5.40;98.30;;;;;;5125776;23;20401;-87
2021/11/17 09:22:43;;;;;;;40.97;22.23;;;5.40;98.30;;;;;;5125483;23;20507;-85
2021/11/17 09:24:46;;;;;;;39.30;21.60;;;5.40;98.30;;;;;;5126162;23;20392;-84
2021/11/17 09:26:52;;;;;;;44.50;22.40;;;5.40;98.30;;;;;;5127397;23;20418;-86
2021/11/17 09:28:57;;;;;;;47.33;24.60;;;5.40;98.30;;;;;;5125967;23;20821;-85
2021/11/17 09:31:02;;;;;;;53.07;22.60;;;5.40;98.30;;;;;;5126881;23;20479;-84
2021/11/17 09:33:09;;;;;;;47.10;20.97;;;5.40;98.30;;;;;;5126909;23;20440;-85
2021/11/17 09:35:15;;;;;;;43.00;19.90;;;5.50;98.30;;;;;;5126607;23;20436;-84
2021/11/17 09:37:23;;;;;;;46.90;23.07;;;5.50;98.30;;;;;;5126352;23;20451;-85
2021/11/17 09:39:26;;;;;;;39.30;21.17;;;5.50;98.30;;;;;;5125974;23;20499;-84
2021/11/17 09:41:33;;;;;;;43.30;22.87;;;5.60;98.30;;;;;;5126503;23;20397;-84
2021/11/17 09:43:39;;;;;;;45.63;22.73;;;5.60;98.30;;;;;;5125161;23;21140;-84
2021/11/17 09:45:43;;;;;;;42.77;21.60;;;5.60;98.30;;;;;;5126085;23;20393;-84
2021/11/17 09:47:50;;;;;;;48.33;22.47;;;5.60;98.30;;;;;;5125384;23;20401;-83
2021/11/17 09:50:00;;;;;;;42.57;21.07;;;5.70;98.30;;;;;;5125808;23;20423;-83
2021/11/17 09:52:07;;;;;;;40.80;20.97;;;5.70;98.30;;;;;;5125642;23;20451;-83
2021/11/17 09:54:14;;;;;;;47.90;22.10;;;5.70;98.30;;;;;;5126417;23;20922;-84
2021/11/17 09:56:20;;;;;;;43.97;23.07;;;5.70;98.30;;;;;;5126408;23;20452;-83
2021/11/17 09:58:27;;;;;;;40.50;22.53;;;5.70;98.30;;;;;;5125982;23;20432;-84
2021/11/17 10:00:44;;;;;;;43.07;20.03;;;5.70;98.30;;;;;;5125609;23;20460;-84
2021/11/17 10:02:54;;;;;;;49.77;23.10;;;5.70;98.30;;;;;;5125773;23;20468;-83
2021/11/17 10:05:00;;;;;;;49.57;22.87;;;5.70;98.30;;;;;;5125660;23;20404;-85
2021/11/17 10:07:37;;;;;;;47.40;24.87;;;5.80;98.30;;;;;;5126417;23;20469;-85
2021/11/17 10:12:49;;;;;;;51.00;23.30;;;5.80;98.30;;;;;;5125947;23;20450;-84
2021/11/17 10:14:51;;;;;;;46.30;22.63;;;5.80;98.30;;;;;;5125527;23;20508;-84
2021/11/17 10:16:55;;;;;;;49.80;25.63;;;5.80;98.30;;;;;;5125997;23;20465;-85
2021/11/17 10:32:00;;;;;;;40.73;21.83;;;5.90;98.30;;;;;;5041764;22;3539599;-84
2021/11/17 11:47:00;;;;;;;82.13;35.40;;;6.70;98.30;;;;;;5124680;23;20460;-81
2021/11/17 11:58:55;;;;;;;75.20;36.60;;;6.80;98.30;;;;;;5147387;23;20619;-82
2021/11/17 12:01:04;;;;;;;88.23;38.73;;;6.90;98.30;;;;;;5144211;23;20445;-82
2021/11/17 12:10:31;;;;;;;86.83;40.60;;;7.00;98.30;;;;;;5098242;23;20449;-81
2021/11/17 13:10:47;;;;;;;64.47;32.83;;;7.90;98.30;;;;;;4932102;24;20946;-81
2021/11/17 13:13:20;;;;;;;70.73;34.80;;;7.90;98.30;;;;;;4977394;23;20456;-80
2021/11/17 13:15:26;;;;;;;58.87;29.53;;;7.90;98.30;;;;;;4992969;23;20808;-80
2021/11/17 13:17:50;;;;;;;53.00;27.40;;;7.90;98.30;;;;;;5003126;23;20521;-80
2021/11/17 13:23:33;;;;;;;56.27;29.67;;;8.00;98.30;;;;;;5058246;23;20859;-80
2021/11/17 13:26:05;;;;;;;46.83;24.50;;;8.00;98.30;;;;;;5097835;23;20434;-80
2021/11/17 13:31:36;;;;;;;49.40;24.83;;;8.10;98.30;;;;;;5089057;23;21107;-81
2021/11/17 13:33:52;;;;;;;47.70;24.40;;;8.10;98.30;;;;;;5103878;23;20981;-81
2021/11/17 14:02:38;;;;;;;46.20;23.77;;;8.30;98.30;;;;;;4943330;23;20451;-83
2021/11/17 14:20:23;;;;;;;44.60;20.87;;;8.50;98.30;;;;;;4878470;24;20431;-83
2021/11/17 14:22:29;;;;;;;38.00;17.90;;;8.50;98.30;;;;;;4975447;23;20866;-83
2021/11/17 14:24:32;;;;;;;41.33;22.10;;;8.50;98.30;;;;;;5035437;23;20431;-84
2021/11/17 14:26:36;;;;;;;50.30;23.57;;;8.50;98.30;;;;;;5093190;23;20518;-83
2021/11/17 14:28:42;;;;;;;42.37;19.33;;;8.50;98.30;;;;;;5113049;23;21130;-83
2021/11/17 14:30:48;;;;;;;44.80;19.33;;;8.50;98.30;;;;;;5121656;23;20834;-83
2021/11/17 14:32:54;;;;;;;43.13;22.47;;;8.50;98.30;;;;;;5121753;23;20457;-83
2021/11/17 14:34:57;;;;;;;41.73;18.53;;;8.50;98.30;;;;;;5121748;23;20545;-82
2021/11/17 14:37:04;;;;;;;39.10;17.57;;;8.50;98.30;;;;;;5123927;23;20577;-82
2021/11/17 14:39:09;;;;;;;41.20;19.70;;;8.50;98.30;;;;;;5122710;23;20490;-84
2021/11/17 14:41:12;;;;;;;48.00;20.20;;;8.50;98.30;;;;;;5125468;23;21245;-84
2021/11/17 14:43:17;;;;;;;48.53;21.00;;;8.50;98.30;;;;;;5125124;23;20444;-84
2021/11/17 14:45:23;;;;;;;43.60;18.20;;;8.50;98.30;;;;;;5123921;23;20428;-84
2021/11/17 14:47:26;;;;;;;47.77;21.23;;;8.50;98.30;;;;;;5116430;23;20503;-84
2021/11/17 14:49:31;;;;;;;41.23;17.67;;;8.50;98.30;;;;;;5116282;23;20469;-83
2021/11/17 14:51:34;;;;;;;41.63;18.87;;;8.60;98.30;;;;;;5124845;23;20429;-82
2021/11/17 14:53:42;;;;;;;46.43;21.73;;;8.50;98.30;;;;;;5123981;23;20450;-84
2021/11/17 14:55:45;;;;;;;41.13;20.80;;;8.50;98.30;;;;;;5116320;23;20613;-84
2021/11/17 14:57:49;;;;;;;42.50;21.60;;;8.50;98.30;;;;;;5116436;23;20920;-84
2021/11/17 14:59:53;;;;;;;49.43;18.00;;;8.50;98.30;;;;;;5123180;23;20439;-83
2021/11/17 15:01:58;;;;;;;44.07;20.00;;;8.50;98.30;;;;;;5123306;23;20451;-86
2021/11/17 15:04:03;;;;;;;37.67;18.50;;;8.50;98.30;;;;;;5123390;23;20504;-84
2021/11/17 15:06:06;;;;;;;37.00;18.57;;;8.50;98.30;;;;;;5124541;23;20433;-84
2021/11/17 15:08:09;;;;;;;48.33;22.60;;;8.50;98.30;;;;;;5126775;23;20454;-84
2021/11/17 15:10:16;;;;;;;55.67;22.23;;;8.50;98.30;;;;;;5126827;23;20826;-84
2021/11/17 15:12:30;;;;;;;44.20;18.33;;;8.50;98.30;;;;;;5124616;23;20442;-83
2021/11/17 15:14:36;;;;;;;44.63;17.97;;;8.40;98.30;;;;;;5124680;23;20515;-83
2021/11/17 15:16:39;;;;;;;44.23;20.67;;;8.50;98.30;;;;;;5118423;23;20453;-83
2021/11/17 15:18:46;;;;;;;47.23;18.50;;;8.50;98.30;;;;;;5125054;23;20430;-85
2021/11/17 15:20:51;;;;;;;42.17;18.37;;;8.50;98.30;;;;;;5125531;23;20793;-83
2021/11/17 15:22:54;;;;;;;38.50;18.90;;;8.50;98.30;;;;;;5124568;23;20446;-83
2021/11/17 15:24:57;;;;;;;46.23;21.23;;;8.50;98.30;;;;;;5123846;23;20458;-83
2021/11/17 15:27:08;;;;;;;43.57;22.50;;;8.50;98.30;;;;;;5123507;23;20442;-84
2021/11/17 15:29:11;;;;;;;45.07;21.20;;;8.50;98.30;;;;;;5123892;23;20446;-83
2021/11/17 15:31:19;;;;;;;63.57;24.37;;;8.50;98.30;;;;;;5124540;23;20438;-83
2021/11/17 15:33:22;;;;;;;30.93;16.47;;;8.50;98.30;;;;;;5124238;23;20444;-82
2021/11/17 15:35:30;;;;;;;34.97;16.10;;;8.50;98.30;;;;;;5124043;23;20503;-84
2021/11/17 15:37:33;;;;;;;34.57;14.07;;;8.50;98.30;;;;;;5124567;23;20543;-84
2021/11/17 15:39:36;;;;;;;24.30;12.50;;;8.50;98.30;;;;;;5124900;23;20497;-83
2021/11/17 15:41:44;;;;;;;30.57;15.20;;;8.40;98.30;;;;;;5125335;23;20468;-84
2021/11/17 15:43:53;;;;;;;30.00;15.40;;;8.40;98.30;;;;;;5128394;23;20428;-84
2021/11/17 15:45:57;;;;;;;25.20;11.80;;;8.40;98.30;;;;;;5125497;23;20526;-83
2021/11/17 15:48:00;;;;;;;31.40;14.10;;;8.30;98.30;;;;;;5115425;23;20473;-83
2021/11/17 15:50:08;;;;;;;24.63;11.33;;;8.30;98.30;;;;;;5123227;23;20440;-84
2021/11/17 15:52:12;;;;;;;22.13;10.07;;;8.30;98.30;;;;;;5124290;23;20439;-84
2021/11/17 15:54:20;;;;;;;23.53;12.80;;;8.30;98.30;;;;;;5123675;23;20480;-83
2021/11/17 15:56:27;;;;;;;22.20;11.50;;;8.30;98.30;;;;;;5124236;23;20420;-83
2021/11/17 15:58:30;;;;;;;21.57;10.63;;;8.30;98.30;;;;;;5123598;23;20473;-83
2021/11/17 16:00:36;;;;;;;17.00;11.00;;;8.20;98.30;;;;;;5123438;23;20753;-83
2021/11/17 16:02:40;;;;;;;19.80;11.30;;;8.20;98.30;;;;;;5124304;23;20455;-82
2021/11/17 16:04:48;;;;;;;23.83;12.33;;;8.30;98.30;;;;;;5124280;23;20406;-82
2021/11/17 16:06:55;;;;;;;23.00;11.23;;;8.20;98.30;;;;;;5123486;23;20474;-83
2021/11/17 16:08:59;;;;;;;20.57;12.27;;;8.20;98.30;;;;;;5123428;23;20496;-83
2021/11/17 16:11:03;;;;;;;27.33;12.77;;;8.20;98.30;;;;;;5124271;23;20423;-83
2021/11/17 16:13:06;;;;;;;22.23;11.60;;;8.20;98.30;;;;;;5115058;23;20446;-83
2021/11/17 16:15:11;;;;;;;28.43;15.30;;;8.20;98.30;;;;;;5123794;23;20430;-83
2021/11/17 16:17:16;;;;;;;27.67;13.80;;;8.20;98.30;;;;;;5123777;23;20444;-85
2021/11/17 16:19:20;;;;;;;33.20;14.97;;;8.10;98.30;;;;;;5123997;23;20434;-82
2021/11/17 16:21:23;;;;;;;27.90;14.43;;;8.10;98.30;;;;;;5128241;23;20426;-83
2021/11/17 16:25:54;;;;;;;25.93;12.63;;;8.10;98.30;;;;;;5151752;23;20455;-82
2021/11/17 16:28:00;;;;;;;29.97;14.70;;;8.10;98.30;;;;;;5143215;23;20508;-82
2021/11/17 16:30:06;;;;;;;29.03;14.27;;;8.10;98.30;;;;;;5150697;23;20511;-82
2021/11/17 16:32:12;;;;;;;29.63;14.63;;;8.10;98.30;;;;;;5152534;23;20444;-83
2021/11/17 16:34:17;;;;;;;23.07;13.90;;;8.10;98.30;;;;;;5151603;23;20810;-83
2021/11/17 16:36:22;;;;;;;23.50;12.67;;;8.20;98.30;;;;;;5152385;23;20452;-86
2021/11/17 16:38:26;;;;;;;27.13;15.53;;;8.10;98.30;;;;;;5152671;23;20431;-82
2021/11/17 16:40:34;;;;;;;26.90;15.27;;;8.20;98.30;;;;;;5150770;23;20432;-85
2021/11/17 16:42:37;;;;;;;30.60;16.70;;;8.20;98.30;;;;;;5150929;23;20537;-82
2021/11/17 16:44:41;;;;;;;36.27;16.10;;;8.20;98.30;;;;;;5144031;23;20911;-83
2021/11/17 16:46:45;;;;;;;34.63;14.73;;;8.20;98.30;;;;;;5153073;23;20925;-81
2021/11/17 16:48:49;;;;;;;33.37;17.37;;;8.20;98.30;;;;;;5155190;23;20449;-83
2021/11/17 16:50:53;;;;;;;33.33;16.30;;;8.10;98.30;;;;;;5152642;23;20978;-84
2021/11/17 16:53:00;;;;;;;32.83;15.27;;;8.10;98.30;;;;;;5151403;23;20552;-84
2021/11/17 16:55:19;;;;;;;31.03;18.23;;;8.10;98.30;;;;;;5151965;23;20440;-83
2021/11/17 16:57:24;;;;;;;27.50;15.77;;;8.10;98.30;;;;;;5151627;23;20475;-85
2021/11/17 16:59:27;;;;;;;31.70;14.57;;;8.10;98.30;;;;;;5151088;23;20466;-83
2021/11/17 17:01:30;;;;;;;25.30;11.67;;;8.10;98.30;;;;;;5151491;23;20431;-85
2021/11/17 17:03:36;;;;;;;33.33;15.80;;;8.10;98.30;;;;;;5150233;23;20453;-84
2021/11/17 17:05:42;;;;;;;37.90;14.83;;;8.10;98.30;;;;;;5149747;22;20522;-86
2021/11/17 17:07:47;;;;;;;25.30;12.20;;;8.10;98.30;;;;;;5151106;23;20429;-84
2021/11/17 17:09:52;;;;;;;18.87;11.10;;;8.10;98.30;;;;;;5151072;23;20425;-83
2021/11/17 17:11:55;;;;;;;25.07;11.23;;;8.10;98.30;;;;;;5151288;22;20453;-83